createdAt,value
2018-12-19T00:00:42.097Z,95532.02
2018-12-19T00:03:14.219Z,95528.64
2018-12-19T00:05:46.440Z,95526.68
2018-12-19T00:08:18.555Z,95520.77
2018-12-19T00:10:51.099Z,95526.04
2018-12-19T00:13:22.793Z,95526.68
2018-12-19T00:15:54.949Z,95525.36
2018-12-19T00:18:27.186Z,95533.88
2018-12-19T00:20:59.749Z,95533.39
2018-12-19T00:23:32.113Z,95533.20
2018-12-19T00:26:04.106Z,95533.98
2018-12-19T00:28:36.207Z,95538.27
2018-12-19T00:31:09.786Z,95526.13
2018-12-19T00:33:42.047Z,95534.65
2018-12-19T00:36:14.282Z,95526.83
2018-12-19T00:38:46.182Z,95531.92
2018-12-19T00:41:18.978Z,95530.86
2018-12-19T00:43:50.823Z,95526.22
2018-12-19T00:46:22.837Z,95530.40
2018-12-19T00:48:55.129Z,95531.33
2018-12-19T00:51:27.428Z,95536.31
2018-12-19T00:53:59.737Z,95538.20
2018-12-19T00:56:32.194Z,95535.90
2018-12-19T00:59:04.405Z,95534.49
2018-12-19T01:01:36.644Z,95533.48
2018-12-19T01:04:09.489Z,95537.30
2018-12-19T01:06:41.190Z,95536.98
2018-12-19T01:09:16.044Z,95538.75
2018-12-19T01:11:47.223Z,95534.77
2018-12-19T01:14:19.503Z,95531.03
2018-12-19T01:16:51.279Z,95531.19
2018-12-19T01:19:23.412Z,95529.88
2018-12-19T01:21:55.341Z,95528.38
2018-12-19T01:24:27.144Z,95531.23
2018-12-19T01:26:59.195Z,95532.47
2018-12-19T01:29:31.276Z,95541.20
2018-12-19T01:32:03.730Z,95530.41
2018-12-19T01:34:35.899Z,95531.36
2018-12-19T01:37:08.075Z,95532.38
2018-12-19T01:39:40.109Z,95532.98
2018-12-19T01:42:12.107Z,95532.34
2018-12-19T01:44:45.062Z,95538.09
2018-12-19T01:47:17.096Z,95534.56
2018-12-19T01:49:50.208Z,95535.69
2018-12-19T01:52:22.079Z,95536.84
2018-12-19T01:54:54.486Z,95528.71
2018-12-19T01:57:26.416Z,95535.89
2018-12-19T01:59:58.337Z,95533.03
2018-12-19T02:02:30.312Z,95533.90
2018-12-19T02:05:02.385Z,95532.11
2018-12-19T02:07:34.114Z,95526.39
2018-12-19T02:10:06.361Z,95529.43
2018-12-19T02:12:38.769Z,95536.57
2018-12-19T02:15:11.248Z,95532.45
2018-12-19T02:17:43.404Z,95539.78
2018-12-19T02:20:15.383Z,95534.20
2018-12-19T02:22:47.240Z,95535.58
2018-12-19T02:25:19.426Z,95532.45
2018-12-19T02:27:52.472Z,95531.53
2018-12-19T02:30:25.163Z,95530.66
2018-12-19T02:32:57.170Z,95535.05
2018-12-19T02:35:29.284Z,95539.20
2018-12-19T02:38:01.546Z,95539.45
2018-12-19T02:40:33.472Z,95544.45
2018-12-19T02:43:06.164Z,95541.11
2018-12-19T02:45:39.065Z,95549.19
2018-12-19T02:48:14.469Z,95542.47
2018-12-19T02:50:46.374Z,95547.00
2018-12-19T02:53:18.636Z,95554.08
2018-12-19T02:55:50.936Z,95548.57
2018-12-19T02:58:23.129Z,95549.41
2018-12-19T03:00:56.210Z,95556.44
2018-12-19T03:03:28.381Z,95560.05
2018-12-19T03:06:01.429Z,95553.16
2018-12-19T03:08:33.307Z,95554.83
2018-12-19T03:11:05.879Z,95554.59
2018-12-19T03:13:38.151Z,95556.98
2018-12-19T03:16:10.640Z,95558.94
2018-12-19T03:18:42.647Z,95559.08
2018-12-19T03:21:14.390Z,95566.27
2018-12-19T03:23:50.033Z,95576.81
2018-12-19T03:26:21.839Z,95569.36
2018-12-19T03:28:54.013Z,95581.96
2018-12-19T03:31:26.135Z,95577.72
2018-12-19T03:33:58.549Z,95578.05
2018-12-19T03:36:30.657Z,95585.67
2018-12-19T03:39:02.813Z,95580.98
2018-12-19T03:41:34.855Z,95577.62
2018-12-19T03:44:07.118Z,95586.55
2018-12-19T03:46:38.864Z,95588.81
2018-12-19T03:49:10.814Z,95585.64
2018-12-19T03:51:43.995Z,95590.52
2018-12-19T03:54:16.418Z,95586.34
2018-12-19T03:56:49.377Z,95591.08
2018-12-19T03:59:21.720Z,95590.16
2018-12-19T04:01:54.035Z,95589.39
2018-12-19T04:04:26.180Z,95593.20
2018-12-19T04:06:58.035Z,95597.39
2018-12-19T04:09:29.993Z,95595.16
2018-12-19T04:12:02.439Z,95595.58
2018-12-19T04:14:34.870Z,95598.50
2018-12-19T04:17:07.180Z,95597.25
2018-12-19T04:19:39.426Z,95600.33
2018-12-19T04:22:11.457Z,95598.06
2018-12-19T04:24:44.022Z,95602.38
2018-12-19T04:27:17.686Z,95603.62
2018-12-19T04:29:50.139Z,95608.10
2018-12-19T04:32:22.893Z,95603.34
2018-12-19T04:34:55.265Z,95610.72
2018-12-19T04:37:28.965Z,95612.28
2018-12-19T04:40:05.373Z,95610.09
2018-12-19T04:42:35.408Z,95612.15
2018-12-19T04:45:07.961Z,95606.17
2018-12-19T04:47:42.419Z,95610.09
2018-12-19T04:50:14.543Z,95607.42
2018-12-19T04:52:46.909Z,95613.61
2018-12-19T04:55:21.132Z,95611.68
2018-12-19T04:57:53.485Z,95613.09
2018-12-19T05:00:25.537Z,95611.63
2018-12-19T05:02:58.189Z,95615.28
2018-12-19T05:05:31.679Z,95614.03
2018-12-19T05:29:59.358Z,95623.02
2018-12-19T05:32:31.744Z,95617.59
2018-12-19T05:35:04.081Z,95624.22
2018-12-19T05:37:36.167Z,95627.66
2018-12-19T05:40:09.483Z,95626.89
2018-12-19T05:42:41.896Z,95627.31
2018-12-19T05:45:16.972Z,95623.14
2018-12-19T05:47:49.045Z,95625.14
2018-12-19T05:50:24.655Z,95625.65
2018-12-19T05:52:56.927Z,95621.98
2018-12-19T05:55:29.286Z,95624.08
2018-12-19T05:58:01.297Z,95626.23
2018-12-19T06:00:33.263Z,95626.05
2018-12-19T06:03:05.436Z,95624.95
2018-12-19T06:05:37.755Z,95619.98
2018-12-19T06:08:10.997Z,95631.86
2018-12-19T06:10:43.020Z,95631.36
2018-12-19T06:13:15.188Z,95630.55
2018-12-19T06:15:48.569Z,95634.73
2018-12-19T06:18:21.286Z,95639.72
2018-12-19T06:20:53.239Z,95639.31
2018-12-19T06:23:28.511Z,95639.16
2018-12-19T06:26:00.807Z,95642.61
2018-12-19T06:28:32.643Z,95636.55
2018-12-19T06:31:07.751Z,95638.86
2018-12-19T06:33:40.262Z,95646.08
2018-12-19T06:36:14.584Z,95644.22
2018-12-19T06:38:46.883Z,95643.39
2018-12-19T06:41:18.874Z,95648.00
2018-12-19T06:43:51.654Z,95643.29
2018-12-19T06:46:23.480Z,95643.70
2018-12-19T06:48:59.790Z,95648.98
2018-12-19T06:51:32.154Z,95653.66
2018-12-19T06:54:04.928Z,95654.91
2018-12-19T06:56:37.932Z,95654.41
2018-12-19T06:59:14.862Z,95657.66
2018-12-19T07:01:46.907Z,95666.31
2018-12-19T07:04:19.018Z,95663.47
2018-12-19T07:06:51.092Z,95667.80
2018-12-19T07:09:24.515Z,95681.17
2018-12-19T07:11:56.740Z,95676.78
2018-12-19T07:14:28.658Z,95684.42
2018-12-19T07:17:00.691Z,95682.78
2018-12-19T07:19:34.038Z,95689.39
2018-12-19T07:22:06.212Z,95689.80
2018-12-19T07:24:38.680Z,95687.42
2018-12-19T07:27:10.766Z,95693.05
2018-12-19T07:29:43.611Z,95700.06
2018-12-19T07:32:15.777Z,95699.14
2018-12-19T07:34:48.560Z,95702.72
2018-12-19T07:37:20.704Z,95708.03
2018-12-19T07:39:52.733Z,95719.67
2018-12-19T07:42:25.064Z,95714.49
2018-12-19T07:44:57.442Z,95717.59
2018-12-19T07:47:29.560Z,95723.52
2018-12-19T07:50:01.599Z,95720.02
2018-12-19T07:52:35.033Z,95724.00
2018-12-19T07:55:07.846Z,95724.95
2018-12-19T07:57:39.842Z,95727.88
2018-12-19T08:00:11.977Z,95726.90
2018-12-19T08:02:43.857Z,95731.89
2018-12-19T08:05:26.163Z,95727.08
2018-12-19T08:07:55.112Z,95733.13
2018-12-19T08:10:27.229Z,95737.38
2018-12-19T08:13:00.474Z,95735.18
2018-12-19T08:15:32.480Z,95740.45
2018-12-19T08:18:05.754Z,95741.61
2018-12-19T08:20:37.678Z,95747.08
2018-12-19T08:23:09.947Z,95739.02
2018-12-19T10:58:57.798Z,95615.70
2018-12-19T11:01:30.062Z,95605.59
2018-12-19T11:04:02.171Z,95602.45
2018-12-19T11:06:34.184Z,95600.38
2018-12-19T11:09:08.703Z,95596.36
2018-12-19T11:11:41.195Z,95603.00
2018-12-19T11:14:13.606Z,95605.73
2018-12-19T11:16:45.730Z,95604.84
2018-12-19T11:19:18.303Z,95603.02
2018-12-19T11:21:50.035Z,95600.45
2018-12-19T11:24:22.614Z,95597.94
2018-12-19T11:26:54.649Z,95601.93
2018-12-19T11:29:26.888Z,95608.60
2018-12-19T11:31:59.456Z,95614.61
2018-12-19T11:34:32.917Z,95606.61
2018-12-19T11:37:06.302Z,95609.00
2018-12-19T11:39:38.584Z,95604.87
2018-12-19T11:42:10.730Z,95601.75
2018-12-19T11:44:43.607Z,95601.04
2018-12-19T11:47:15.637Z,95601.96
2018-12-19T11:49:48.317Z,95602.38
2018-12-19T11:52:20.654Z,95601.89
2018-12-19T11:54:53.388Z,95596.17
2018-12-19T11:57:25.459Z,95597.93
2018-12-19T11:59:57.499Z,95602.80
2018-12-19T12:02:29.692Z,95597.72
2018-12-19T12:05:01.816Z,95594.94
2018-12-19T12:07:34.049Z,95598.34
2018-12-19T12:10:06.722Z,95590.21
2018-12-19T12:12:38.888Z,95587.48
2018-12-19T12:15:10.950Z,95585.14
2018-12-19T12:17:43.069Z,95585.44
2018-12-19T12:20:15.561Z,95585.53
2018-12-19T12:22:47.588Z,95590.14
2018-12-19T12:25:20.079Z,95579.46
2018-12-19T12:27:53.174Z,95578.38
2018-12-19T12:30:25.241Z,95579.67
2018-12-19T12:32:58.119Z,95585.52
2018-12-19T12:35:30.158Z,95577.85
2018-12-19T12:38:02.273Z,95569.72
2018-12-19T12:40:34.895Z,95573.18
2018-12-19T12:43:06.773Z,95567.28
2018-12-19T12:45:39.087Z,95569.73
2018-12-19T12:48:10.980Z,95564.58
2018-12-19T12:50:42.970Z,95571.45
2018-12-19T12:53:16.179Z,95570.09
2018-12-19T12:55:48.628Z,95574.46
2018-12-19T12:58:20.803Z,95574.70
2018-12-19T13:00:53.264Z,95568.91
2018-12-19T13:03:25.704Z,95572.44
2018-12-19T13:05:57.966Z,95570.18
2018-12-19T13:08:30.072Z,95574.60
2018-12-19T13:11:02.365Z,95570.53
2018-12-19T13:13:34.841Z,95576.50
2018-12-19T13:16:06.982Z,95572.50
2018-12-19T13:18:39.132Z,95569.80
2018-12-19T13:21:11.868Z,95576.47
2018-12-19T13:23:44.847Z,95570.16
2018-12-19T13:26:16.908Z,95574.47
2018-12-19T13:28:49.154Z,95572.81
2018-12-19T13:31:21.162Z,95566.36
2018-12-19T13:33:53.239Z,95568.34
2018-12-19T13:36:25.316Z,95566.91
2018-12-19T13:38:57.579Z,95568.81
2018-12-19T13:41:29.631Z,95566.17
2018-12-19T13:44:02.302Z,95576.81
2018-12-19T13:46:34.583Z,95571.21
2018-12-19T13:49:06.741Z,95572.09
2018-12-19T13:51:42.326Z,95574.64
2018-12-19T13:54:14.455Z,95575.42
2018-12-19T13:56:45.902Z,95577.63
2018-12-19T13:59:16.994Z,95586.40
2018-12-19T14:01:47.988Z,95589.36
2018-12-19T14:04:19.247Z,95582.59
2018-12-19T14:06:50.315Z,95592.81
2018-12-19T14:09:21.385Z,95585.44
2018-12-19T14:11:52.286Z,95584.80
2018-12-19T14:14:23.327Z,95596.13
2018-12-19T14:16:54.253Z,95594.21
2018-12-19T14:19:25.532Z,95600.84
2018-12-19T14:21:56.602Z,95598.42
2018-12-19T14:24:27.692Z,95602.82
2018-12-19T14:26:58.582Z,95603.30
2018-12-19T14:29:29.633Z,95603.63
2018-12-19T14:32:00.839Z,95601.22
2018-12-19T14:34:31.883Z,95597.34
2018-12-19T14:37:03.189Z,95600.27
2018-12-19T14:39:34.260Z,95601.27
2018-12-19T14:42:05.499Z,95601.44
2018-12-19T14:44:36.514Z,95608.38
2018-12-19T14:47:07.858Z,95608.02
2018-12-19T14:49:39.115Z,95606.58
2018-12-19T14:52:10.247Z,95605.28
2018-12-19T14:54:41.292Z,95600.42
2018-12-19T14:57:12.385Z,95606.22
2018-12-19T14:59:43.589Z,95608.45
2018-12-19T15:02:14.492Z,95607.78
2018-12-19T15:04:45.578Z,95610.34
2018-12-19T15:07:17.583Z,95613.88
2018-12-19T15:09:48.628Z,95614.45
2018-12-19T15:12:25.551Z,95613.52
2018-12-19T15:14:52.560Z,95616.39
2018-12-19T15:17:23.629Z,95617.55
2018-12-19T15:19:55.122Z,95616.97
2018-12-19T15:22:26.129Z,95620.38
2018-12-19T15:24:57.334Z,95621.82
2018-12-19T15:27:28.469Z,95624.63
2018-12-19T15:29:59.641Z,95628.08
2018-12-19T15:32:30.656Z,95634.53
2018-12-19T15:35:01.662Z,95634.73
2018-12-19T15:37:32.594Z,95632.22
2018-12-19T15:40:03.836Z,95633.61
2018-12-19T15:42:34.881Z,95631.63
2018-12-19T15:45:30.214Z,95632.67
2018-12-19T15:48:01.500Z,95640.06
2018-12-19T15:50:32.931Z,95634.77
2018-12-19T15:53:04.046Z,95634.47
2018-12-19T15:55:35.323Z,95641.55
2018-12-19T15:58:06.567Z,95638.75
2018-12-19T16:00:37.485Z,95642.30
2018-12-19T16:03:08.594Z,95641.25
2018-12-19T16:05:40.016Z,95648.76
2018-12-19T16:08:11.190Z,95647.73
2018-12-19T16:10:42.313Z,95648.23
2018-12-19T16:13:13.646Z,95651.39
2018-12-19T16:15:44.719Z,95654.47
2018-12-19T16:18:17.249Z,95653.77
2018-12-19T16:20:48.723Z,95659.59
2018-12-19T16:23:20.262Z,95664.47
2018-12-19T16:25:52.463Z,95669.70
2018-12-19T16:28:23.691Z,95669.09
2018-12-19T16:30:54.833Z,95676.56
2018-12-19T16:33:25.942Z,95672.53
2018-12-19T16:35:57.630Z,95672.93
2018-12-19T16:38:28.921Z,95677.17
2018-12-19T16:41:01.934Z,95676.86
2018-12-19T16:43:35.434Z,95674.52
2018-12-19T16:46:14.953Z,95674.84
2018-12-19T16:48:46.960Z,95683.34
2018-12-19T16:51:33.785Z,95673.17
2018-12-19T16:54:04.973Z,95678.02
2018-12-19T16:56:36.543Z,95686.70
2018-12-19T16:59:07.912Z,95682.74
2018-12-19T17:01:39.742Z,95679.03
2018-12-19T17:04:11.153Z,95674.64
2018-12-19T17:06:42.592Z,95679.91
2018-12-19T17:09:13.800Z,95671.70
2018-12-19T17:11:44.959Z,95672.23
2018-12-19T17:14:15.945Z,95670.84
2018-12-19T17:16:47.439Z,95670.85
2018-12-19T17:19:18.441Z,95667.77
2018-12-19T17:21:49.695Z,95668.11
2018-12-19T17:24:22.657Z,95667.72
2018-12-19T17:26:53.620Z,95664.68
2018-12-19T17:29:25.372Z,95657.10
2018-12-19T17:31:56.650Z,95660.31
2018-12-19T17:34:28.086Z,95653.86
2018-12-19T17:36:59.229Z,95667.30
2018-12-19T17:39:30.356Z,95661.91
2018-12-19T17:42:01.560Z,95657.64
2018-12-19T17:44:33.279Z,95661.00
2018-12-19T17:47:04.481Z,95661.05
2018-12-19T17:49:35.644Z,95660.66
2018-12-19T17:52:07.173Z,95667.97
2018-12-19T17:54:38.696Z,95669.48
2018-12-19T17:57:10.444Z,95668.77
2018-12-19T17:59:45.260Z,95668.68
2018-12-19T18:02:16.385Z,95663.98
2018-12-19T18:04:47.478Z,95656.30
2018-12-19T18:07:18.593Z,95660.88
2018-12-19T18:09:49.981Z,95658.72
2018-12-19T18:12:21.684Z,95662.78
2018-12-19T18:14:53.157Z,95668.41
2018-12-19T18:17:24.394Z,95662.91
2018-12-19T18:19:55.609Z,95661.47
2018-12-19T18:22:27.251Z,95669.22
2018-12-19T18:24:58.731Z,95670.54
2018-12-19T18:27:29.997Z,95662.97
2018-12-19T18:30:01.450Z,95668.95
2018-12-19T18:32:32.644Z,95673.99
2018-12-19T18:35:04.080Z,95676.20
2018-12-19T18:37:35.258Z,95678.42
2018-12-19T18:40:06.730Z,95682.51
2018-12-19T18:42:38.558Z,95682.78
2018-12-19T18:45:12.064Z,95684.35
2018-12-19T18:47:43.309Z,95680.18
2018-12-19T18:50:14.432Z,95673.30
2018-12-19T18:52:45.484Z,95673.52
2018-12-19T18:55:17.556Z,95684.22
2018-12-19T18:57:49.362Z,95688.17
2018-12-19T19:00:25.780Z,95695.11
2018-12-19T19:02:57.144Z,95692.64
2018-12-19T19:05:28.294Z,95693.48
2018-12-19T19:07:59.454Z,95693.16
2018-12-19T19:10:31.089Z,95695.14
2018-12-19T19:13:02.262Z,95690.70
2018-12-19T19:15:33.278Z,95687.33
2018-12-19T19:18:04.426Z,95691.66
2018-12-19T19:20:35.499Z,95688.42
2018-12-19T19:23:06.543Z,95687.07
2018-12-19T19:25:37.647Z,95686.16
2018-12-19T19:28:09.877Z,95689.56
2018-12-19T19:30:40.929Z,95692.33
2018-12-19T19:33:12.232Z,95699.49
2018-12-19T19:35:43.384Z,95691.64
2018-12-19T19:38:14.291Z,95696.59
2018-12-19T19:40:45.268Z,95691.59
2018-12-19T19:43:16.456Z,95691.78
2018-12-19T19:45:47.685Z,95694.83
2018-12-19T19:48:18.759Z,95688.63
2018-12-19T19:50:49.912Z,95705.88
2018-12-19T19:53:22.037Z,95697.73
2018-12-19T19:55:53.414Z,95703.38
2018-12-19T19:58:24.478Z,95704.95
2018-12-19T20:00:55.465Z,95706.75
2018-12-19T20:03:26.650Z,95706.05
2018-12-19T20:05:58.437Z,95708.16
2018-12-19T20:08:30.243Z,95708.40
2018-12-19T20:11:02.337Z,95715.45
2018-12-19T20:13:34.296Z,95712.55
2018-12-19T20:16:05.708Z,95716.05
2018-12-19T20:18:36.841Z,95716.67
2018-12-19T20:21:08.625Z,95723.66
2018-12-19T20:23:39.628Z,95714.61
2018-12-19T20:26:10.593Z,95710.75
2018-12-19T20:28:42.912Z,95711.56
2018-12-19T20:31:14.349Z,95715.77
2018-12-19T20:33:46.081Z,95712.58
2018-12-19T20:36:17.377Z,95720.17
2018-12-19T20:38:48.889Z,95724.51
2018-12-19T20:41:20.164Z,95726.81
2018-12-19T20:43:53.026Z,95733.46
2018-12-19T20:46:32.878Z,95730.64
2018-12-19T20:49:05.297Z,95729.69
2018-12-19T20:51:36.475Z,95731.77
2018-12-19T20:54:08.193Z,95735.30
2018-12-19T20:56:40.061Z,95736.98
2018-12-19T20:59:11.194Z,95732.35
2018-12-19T21:01:42.339Z,95728.89
2018-12-19T21:04:13.754Z,95724.08
2018-12-19T21:06:44.927Z,95729.73
2018-12-19T21:09:16.060Z,95730.42
2018-12-19T21:11:48.343Z,95734.38
2018-12-19T21:14:19.396Z,95731.25
2018-12-19T21:16:55.813Z,95725.60
2018-12-19T21:19:27.130Z,95729.20
2018-12-19T21:21:59.295Z,95733.53
2018-12-19T21:24:30.605Z,95731.39
2018-12-19T21:27:01.571Z,95729.33
2018-12-19T21:29:32.903Z,95729.95
2018-12-19T21:32:03.962Z,95729.42
2018-12-19T21:34:34.904Z,95731.14
2018-12-19T21:37:06.244Z,95730.66
2018-12-19T21:39:39.033Z,95729.69
2018-12-19T21:42:10.107Z,95726.39
2018-12-19T21:44:41.402Z,95727.35
2018-12-19T21:47:12.343Z,95722.54
2018-12-19T21:49:43.645Z,95721.95
2018-12-19T21:52:15.341Z,95720.67
2018-12-19T21:54:46.624Z,95723.88
2018-12-19T21:57:17.779Z,95724.84
2018-12-19T21:59:49.312Z,95721.05
2018-12-19T22:02:20.665Z,95721.52
2018-12-19T22:04:51.847Z,95720.75
2018-12-19T22:07:23.184Z,95713.36
2018-12-19T22:09:54.734Z,95711.45
2018-12-19T22:12:26.908Z,95721.31
2018-12-19T22:14:58.321Z,95718.02
2018-12-19T22:18:32.673Z,95717.06
2018-12-19T22:21:03.858Z,95716.24
2018-12-19T22:23:35.376Z,95708.66
2018-12-19T22:26:06.863Z,95704.12
2018-12-19T22:28:38.909Z,95706.48
2018-12-19T22:31:10.284Z,95707.50
2018-12-19T22:33:41.601Z,95710.31
2018-12-19T22:36:12.842Z,95710.47
2018-12-19T22:38:43.873Z,95708.23
2018-12-19T22:41:15.327Z,95711.28
2018-12-19T22:43:46.752Z,95713.68
2018-12-19T22:46:17.880Z,95707.27
2018-12-19T22:48:49.052Z,95708.11
2018-12-19T22:51:20.276Z,95705.48
2018-12-19T22:53:51.292Z,95706.34
2018-12-19T22:56:22.271Z,95708.59
2018-12-19T22:58:53.409Z,95707.89
2018-12-19T23:01:29.797Z,95702.94
2018-12-19T23:04:07.477Z,95705.14
2018-12-19T23:06:38.902Z,95704.55
2018-12-19T23:09:09.985Z,95708.19
2018-12-19T23:11:41.124Z,95710.12
2018-12-19T23:14:15.541Z,95703.45
2018-12-19T23:16:46.265Z,95701.23
2018-12-19T23:19:17.485Z,95703.55
2018-12-19T23:21:48.718Z,95697.23
2018-12-19T23:24:19.801Z,95694.91
2018-12-19T23:26:51.147Z,95688.30
2018-12-19T23:29:22.237Z,95701.19
2018-12-19T23:31:53.465Z,95703.05
2018-12-19T23:34:24.618Z,95706.50
2018-12-19T23:36:55.823Z,95704.06
2018-12-19T23:39:26.937Z,95702.77
2018-12-19T23:41:58.159Z,95691.20
2018-12-19T23:44:33.678Z,95690.41
2018-12-19T23:47:04.795Z,95691.05
2018-12-19T23:49:35.682Z,95691.77
2018-12-19T23:52:06.937Z,95689.69
2018-12-19T23:54:38.104Z,95689.14
2018-12-19T23:57:09.518Z,95687.36
2018-12-19T23:59:40.611Z,95686.90
